sensor_id;sensor_type;location;lat;lon;timestamp;P1;durP1;ratioP1;P2;durP2;ratioP2
29814;SDS011;16708;50.426;7.664;2024-01-27T00:16:25;14.50;;;2.10;;
29814;SDS011;16708;50.426;7.664;2024-01-27T00:31:01;7.70;;;2.20;;
29814;SDS011;16708;50.426;7.664;2024-01-27T00:45:39;20.50;;;2.30;;
29814;SDS011;16708;50.426;7.664;2024-01-27T00:50:30;58.90;;;12.50;;
29814;SDS011;16708;50.426;7.664;2024-01-27T01:05:05;13.70;;;2.30;;
29814;SDS011;16708;50.426;7.664;2024-01-27T01:09:59;15.30;;;2.40;;
29814;SDS011;16708;50.426;7.664;2024-01-27T01:24:33;20.30;;;4.20;;
29814;SDS011;16708;50.426;7.664;2024-01-27T01:29:28;18.10;;;3.80;;
29814;SDS011;16708;50.426;7.664;2024-01-27T01:44:03;11.60;;;2.40;;
29814;SDS011;16708;50.426;7.664;2024-01-27T01:48:57;13.10;;;2.20;;
29814;SDS011;16708;50.426;7.664;2024-01-27T02:03:30;18.90;;;3.00;;
29814;SDS011;16708;50.426;7.664;2024-01-27T02:08:24;16.80;;;2.60;;
29814;SDS011;16708;50.426;7.664;2024-01-27T02:22:59;11.10;;;1.90;;
29814;SDS011;16708;50.426;7.664;2024-01-27T02:37:36;17.30;;;2.40;;
29814;SDS011;16708;50.426;7.664;2024-01-27T02:52:12;23.10;;;2.60;;
29814;SDS011;16708;50.426;7.664;2024-01-27T03:06:49;14.40;;;2.80;;
29814;SDS011;16708;50.426;7.664;2024-01-27T03:21:21;15.60;;;2.70;;
29814;SDS011;16708;50.426;7.664;2024-01-27T03:35:56;21.50;;;2.90;;
29814;SDS011;16708;50.426;7.664;2024-01-27T03:50:31;16.00;;;2.80;;
29814;SDS011;16708;50.426;7.664;2024-01-27T04:05:07;14.00;;;2.70;;
29814;SDS011;16708;50.426;7.664;2024-01-27T04:19:44;19.90;;;3.60;;
29814;SDS011;16708;50.426;7.664;2024-01-27T04:34:21;20.10;;;3.80;;
29814;SDS011;16708;50.426;7.664;2024-01-27T04:48:55;23.80;;;5.60;;
29814;SDS011;16708;50.426;7.664;2024-01-27T05:03:32;33.90;;;6.60;;
29814;SDS011;16708;50.426;7.664;2024-01-27T05:18:10;41.30;;;6.80;;
29814;SDS011;16708;50.426;7.664;2024-01-27T05:32:42;24.70;;;4.20;;
29814;SDS011;16708;50.426;7.664;2024-01-27T05:47:19;22.60;;;4.50;;
29814;SDS011;16708;50.426;7.664;2024-01-27T06:01:53;37.70;;;7.60;;
29814;SDS011;16708;50.426;7.664;2024-01-27T06:16:30;26.00;;;5.20;;
29814;SDS011;16708;50.426;7.664;2024-01-27T06:31:07;23.70;;;5.20;;
29814;SDS011;16708;50.426;7.664;2024-01-27T06:45:44;29.60;;;6.30;;
29814;SDS011;16708;50.426;7.664;2024-01-27T07:00:16;25.00;;;4.50;;
29814;SDS011;16708;50.426;7.664;2024-01-27T07:14:51;29.30;;;7.80;;
29814;SDS011;16708;50.426;7.664;2024-01-27T07:29:25;34.50;;;8.80;;
29814;SDS011;16708;50.426;7.664;2024-01-27T07:44:03;35.10;;;10.20;;
29814;SDS011;16708;50.426;7.664;2024-01-27T07:58:40;34.00;;;9.40;;
29814;SDS011;16708;50.426;7.664;2024-01-27T08:27:46;31.30;;;6.90;;
29814;SDS011;16708;50.426;7.664;2024-01-27T08:42:19;32.70;;;7.30;;
29814;SDS011;16708;50.426;7.664;2024-01-27T08:56:55;20.80;;;6.30;;
29814;SDS011;16708;50.426;7.664;2024-01-27T09:01:49;38.40;;;10.80;;
29814;SDS011;16708;50.426;7.664;2024-01-27T09:16:27;21.30;;;6.70;;
29814;SDS011;16708;50.426;7.664;2024-01-27T09:21:23;12.30;;;3.80;;
29814;SDS011;16708;50.426;7.664;2024-01-27T09:26:19;14.00;;;2.50;;
29814;SDS011;16708;50.426;7.664;2024-01-27T09:31:14;6.80;;;1.80;;
29814;SDS011;16708;50.426;7.664;2024-01-27T09:36:09;7.60;;;2.10;;
29814;SDS011;16708;50.426;7.664;2024-01-27T09:41:04;8.10;;;1.80;;
29814;SDS011;16708;50.426;7.664;2024-01-27T09:45:59;8.50;;;2.00;;
29814;SDS011;16708;50.426;7.664;2024-01-27T09:50:54;12.90;;;3.20;;
29814;SDS011;16708;50.426;7.664;2024-01-27T09:55:49;8.90;;;2.80;;
29814;SDS011;16708;50.426;7.664;2024-01-27T10:00:43;13.30;;;2.10;;
29814;SDS011;16708;50.426;7.664;2024-01-27T10:05:38;9.20;;;2.00;;
29814;SDS011;16708;50.426;7.664;2024-01-27T10:10:33;9.00;;;2.00;;
29814;SDS011;16708;50.426;7.664;2024-01-27T10:15:29;9.30;;;2.00;;
29814;SDS011;16708;50.426;7.664;2024-01-27T10:20:24;6.30;;;2.00;;
29814;SDS011;16708;50.426;7.664;2024-01-27T10:25:19;10.20;;;2.50;;
29814;SDS011;16708;50.426;7.664;2024-01-27T10:30:12;9.50;;;2.10;;
29814;SDS011;16708;50.426;7.664;2024-01-27T10:35:07;11.20;;;2.70;;
29814;SDS011;16708;50.426;7.664;2024-01-27T10:40:01;8.30;;;2.10;;
29814;SDS011;16708;50.426;7.664;2024-01-27T10:44:56;8.00;;;1.70;;
29814;SDS011;16708;50.426;7.664;2024-01-27T10:49:50;8.10;;;1.80;;
29814;SDS011;16708;50.426;7.664;2024-01-27T10:54:44;10.50;;;2.00;;
29814;SDS011;16708;50.426;7.664;2024-01-27T10:59:38;9.90;;;2.20;;
29814;SDS011;16708;50.426;7.664;2024-01-27T11:04:33;7.30;;;1.90;;
29814;SDS011;16708;50.426;7.664;2024-01-27T11:14:21;10.90;;;2.70;;
29814;SDS011;16708;50.426;7.664;2024-01-27T11:19:16;11.70;;;2.70;;
29814;SDS011;16708;50.426;7.664;2024-01-27T11:29:04;8.40;;;2.50;;
29814;SDS011;16708;50.426;7.664;2024-01-27T11:33:59;11.10;;;2.80;;
29814;SDS011;16708;50.426;7.664;2024-01-27T11:43:48;7.40;;;2.20;;
29814;SDS011;16708;50.426;7.664;2024-01-27T11:48:42;9.60;;;2.40;;
29814;SDS011;16708;50.426;7.664;2024-01-27T11:58:31;10.90;;;3.00;;
29814;SDS011;16708;50.426;7.664;2024-01-27T12:03:24;14.50;;;4.40;;
29814;SDS011;16708;50.426;7.664;2024-01-27T12:13:13;12.80;;;3.30;;
29814;SDS011;16708;50.426;7.664;2024-01-27T12:18:07;9.50;;;2.70;;
29814;SDS011;16708;50.426;7.664;2024-01-27T12:27:57;8.90;;;2.50;;
29814;SDS011;16708;50.426;7.664;2024-01-27T12:37:45;13.20;;;3.20;;
29814;SDS011;16708;50.426;7.664;2024-01-27T12:42:39;9.80;;;2.50;;
29814;SDS011;16708;50.426;7.664;2024-01-27T12:47:33;10.80;;;2.90;;
29814;SDS011;16708;50.426;7.664;2024-01-27T12:52:28;12.70;;;3.00;;
29814;SDS011;16708;50.426;7.664;2024-01-27T12:57:22;10.60;;;2.80;;
29814;SDS011;16708;50.426;7.664;2024-01-27T13:02:16;8.70;;;2.90;;
29814;SDS011;16708;50.426;7.664;2024-01-27T13:07:09;9.90;;;2.80;;
29814;SDS011;16708;50.426;7.664;2024-01-27T13:12:03;9.40;;;3.00;;
29814;SDS011;16708;50.426;7.664;2024-01-27T13:16:58;9.90;;;2.80;;
29814;SDS011;16708;50.426;7.664;2024-01-27T13:21:52;11.00;;;2.70;;
29814;SDS011;16708;50.426;7.664;2024-01-27T13:26:46;10.40;;;2.70;;
29814;SDS011;16708;50.426;7.664;2024-01-27T13:31:39;8.10;;;2.60;;
29814;SDS011;16708;50.426;7.664;2024-01-27T13:36:33;11.30;;;2.60;;
29814;SDS011;16708;50.426;7.664;2024-01-27T13:41:28;10.20;;;2.70;;
29814;SDS011;16708;50.426;7.664;2024-01-27T13:46:22;11.30;;;2.80;;
29814;SDS011;16708;50.426;7.664;2024-01-27T13:51:16;7.70;;;2.60;;
29814;SDS011;16708;50.426;7.664;2024-01-27T13:56:10;7.60;;;2.20;;
29814;SDS011;16708;50.426;7.664;2024-01-27T14:01:04;7.70;;;2.30;;
29814;SDS011;16708;50.426;7.664;2024-01-27T14:05:58;9.90;;;2.50;;
29814;SDS011;16708;50.426;7.664;2024-01-27T14:10:52;8.90;;;2.20;;
29814;SDS011;16708;50.426;7.664;2024-01-27T14:20:39;8.50;;;2.80;;
29814;SDS011;16708;50.426;7.664;2024-01-27T14:25:32;9.10;;;2.10;;
29814;SDS011;16708;50.426;7.664;2024-01-27T14:30:26;10.50;;;2.20;;
29814;SDS011;16708;50.426;7.664;2024-01-27T14:35:20;8.70;;;1.90;;
29814;SDS011;16708;50.426;7.664;2024-01-27T14:40:11;8.30;;;2.20;;
29814;SDS011;16708;50.426;7.664;2024-01-27T14:45:06;7.50;;;2.30;;
29814;SDS011;16708;50.426;7.664;2024-01-27T14:50:00;8.60;;;2.60;;
29814;SDS011;16708;50.426;7.664;2024-01-27T14:54:54;18.00;;;4.10;;
29814;SDS011;16708;50.426;7.664;2024-01-27T14:59:48;8.90;;;2.30;;
29814;SDS011;16708;50.426;7.664;2024-01-27T15:04:42;7.50;;;2.20;;
29814;SDS011;16708;50.426;7.664;2024-01-27T15:09:36;10.00;;;2.40;;
29814;SDS011;16708;50.426;7.664;2024-01-27T15:14:30;8.30;;;2.20;;
29814;SDS011;16708;50.426;7.664;2024-01-27T15:19:24;7.10;;;1.90;;
29814;SDS011;16708;50.426;7.664;2024-01-27T15:24:18;10.40;;;2.10;;
29814;SDS011;16708;50.426;7.664;2024-01-27T15:34:05;8.30;;;2.30;;
29814;SDS011;16708;50.426;7.664;2024-01-27T15:38:58;11.70;;;2.20;;
29814;SDS011;16708;50.426;7.664;2024-01-27T15:43:52;8.60;;;1.80;;
29814;SDS011;16708;50.426;7.664;2024-01-27T15:48:45;10.70;;;1.70;;
29814;SDS011;16708;50.426;7.664;2024-01-27T15:53:38;10.20;;;2.40;;
29814;SDS011;16708;50.426;7.664;2024-01-27T16:03:25;10.70;;;2.90;;
29814;SDS011;16708;50.426;7.664;2024-01-27T16:08:19;10.80;;;3.00;;
29814;SDS011;16708;50.426;7.664;2024-01-27T16:13:12;7.40;;;2.40;;
29814;SDS011;16708;50.426;7.664;2024-01-27T16:18:06;13.80;;;3.70;;
29814;SDS011;16708;50.426;7.664;2024-01-27T16:23:00;12.80;;;4.30;;
29814;SDS011;16708;50.426;7.664;2024-01-27T16:27:54;12.40;;;3.60;;
29814;SDS011;16708;50.426;7.664;2024-01-27T16:32:48;9.90;;;3.30;;
29814;SDS011;16708;50.426;7.664;2024-01-27T16:37:42;13.40;;;3.40;;
29814;SDS011;16708;50.426;7.664;2024-01-27T16:42:36;12.50;;;3.20;;
29814;SDS011;16708;50.426;7.664;2024-01-27T16:47:30;19.70;;;6.80;;
29814;SDS011;16708;50.426;7.664;2024-01-27T16:52:24;12.50;;;5.20;;
29814;SDS011;16708;50.426;7.664;2024-01-27T16:57:18;18.10;;;5.30;;
29814;SDS011;16708;50.426;7.664;2024-01-27T17:02:12;20.30;;;7.40;;
29814;SDS011;16708;50.426;7.664;2024-01-27T17:07:06;17.90;;;7.40;;
29814;SDS011;16708;50.426;7.664;2024-01-27T17:12:00;28.60;;;10.40;;
29814;SDS011;16708;50.426;7.664;2024-01-27T17:16:54;37.40;;;13.80;;
29814;SDS011;16708;50.426;7.664;2024-01-27T17:21:48;52.80;;;17.60;;
29814;SDS011;16708;50.426;7.664;2024-01-27T17:26:41;58.30;;;20.10;;
29814;SDS011;16708;50.426;7.664;2024-01-27T17:31:36;58.10;;;19.90;;
29814;SDS011;16708;50.426;7.664;2024-01-27T17:36:29;45.70;;;17.20;;
29814;SDS011;16708;50.426;7.664;2024-01-27T17:41:23;33.00;;;13.30;;
29814;SDS011;16708;50.426;7.664;2024-01-27T17:46:17;27.90;;;12.10;;
29814;SDS011;16708;50.426;7.664;2024-01-27T17:51:08;26.70;;;10.20;;
29814;SDS011;16708;50.426;7.664;2024-01-27T17:56:03;31.50;;;13.30;;
29814;SDS011;16708;50.426;7.664;2024-01-27T18:00:56;36.50;;;15.10;;
29814;SDS011;16708;50.426;7.664;2024-01-27T18:05:50;51.60;;;19.20;;
29814;SDS011;16708;50.426;7.664;2024-01-27T18:10:44;32.90;;;14.60;;
29814;SDS011;16708;50.426;7.664;2024-01-27T18:15:38;26.30;;;12.00;;
29814;SDS011;16708;50.426;7.664;2024-01-27T18:20:32;26.40;;;12.00;;
29814;SDS011;16708;50.426;7.664;2024-01-27T18:25:26;46.70;;;18.40;;
29814;SDS011;16708;50.426;7.664;2024-01-27T18:30:20;39.20;;;16.70;;
29814;SDS011;16708;50.426;7.664;2024-01-27T18:35:14;36.00;;;14.10;;
29814;SDS011;16708;50.426;7.664;2024-01-27T18:40:08;21.30;;;9.00;;
29814;SDS011;16708;50.426;7.664;2024-01-27T18:45:02;18.20;;;8.10;;
29814;SDS011;16708;50.426;7.664;2024-01-27T18:49:57;17.30;;;6.60;;
29814;SDS011;16708;50.426;7.664;2024-01-27T18:54:51;17.40;;;6.40;;
29814;SDS011;16708;50.426;7.664;2024-01-27T18:59:45;18.50;;;6.40;;
29814;SDS011;16708;50.426;7.664;2024-01-27T19:04:38;19.50;;;7.10;;
29814;SDS011;16708;50.426;7.664;2024-01-27T19:09:31;23.50;;;7.00;;
29814;SDS011;16708;50.426;7.664;2024-01-27T19:14:26;24.20;;;8.10;;
29814;SDS011;16708;50.426;7.664;2024-01-27T19:19:20;27.40;;;9.10;;
29814;SDS011;16708;50.426;7.664;2024-01-27T19:24:14;23.50;;;7.90;;
29814;SDS011;16708;50.426;7.664;2024-01-27T19:34:02;24.60;;;8.40;;
29814;SDS011;16708;50.426;7.664;2024-01-27T19:38:56;22.60;;;7.70;;
29814;SDS011;16708;50.426;7.664;2024-01-27T19:43:50;18.90;;;7.80;;
29814;SDS011;16708;50.426;7.664;2024-01-27T19:48:44;20.20;;;7.50;;
29814;SDS011;16708;50.426;7.664;2024-01-27T19:53:38;22.90;;;8.50;;
29814;SDS011;16708;50.426;7.664;2024-01-27T19:58:32;31.30;;;11.50;;
29814;SDS011;16708;50.426;7.664;2024-01-27T20:03:26;39.10;;;14.70;;
29814;SDS011;16708;50.426;7.664;2024-01-27T20:08:19;36.50;;;14.20;;
29814;SDS011;16708;50.426;7.664;2024-01-27T20:13:12;26.10;;;10.60;;
29814;SDS011;16708;50.426;7.664;2024-01-27T20:18:06;33.10;;;12.10;;
29814;SDS011;16708;50.426;7.664;2024-01-27T20:23:00;26.80;;;11.30;;
29814;SDS011;16708;50.426;7.664;2024-01-27T20:27:54;26.60;;;9.70;;
29814;SDS011;16708;50.426;7.664;2024-01-27T20:32:48;19.90;;;7.80;;
29814;SDS011;16708;50.426;7.664;2024-01-27T20:37:40;23.20;;;7.90;;
29814;SDS011;16708;50.426;7.664;2024-01-27T20:42:34;23.80;;;9.20;;
29814;SDS011;16708;50.426;7.664;2024-01-27T20:47:28;19.50;;;6.00;;
29814;SDS011;16708;50.426;7.664;2024-01-27T20:52:22;18.40;;;5.10;;
29814;SDS011;16708;50.426;7.664;2024-01-27T20:57:17;11.20;;;4.30;;
29814;SDS011;16708;50.426;7.664;2024-01-27T21:02:11;13.30;;;4.00;;
29814;SDS011;16708;50.426;7.664;2024-01-27T21:07:05;14.30;;;4.10;;
29814;SDS011;16708;50.426;7.664;2024-01-27T21:11:59;13.60;;;4.00;;
29814;SDS011;16708;50.426;7.664;2024-01-27T21:16:52;10.30;;;3.90;;
29814;SDS011;16708;50.426;7.664;2024-01-27T21:21:46;17.70;;;4.50;;
29814;SDS011;16708;50.426;7.664;2024-01-27T21:26:40;12.30;;;4.10;;
29814;SDS011;16708;50.426;7.664;2024-01-27T21:31:34;13.70;;;3.70;;
29814;SDS011;16708;50.426;7.664;2024-01-27T21:36:27;15.90;;;4.20;;
29814;SDS011;16708;50.426;7.664;2024-01-27T21:41:22;13.70;;;4.70;;
29814;SDS011;16708;50.426;7.664;2024-01-27T21:46:16;18.30;;;5.40;;
29814;SDS011;16708;50.426;7.664;2024-01-27T21:56:04;24.60;;;6.90;;
29814;SDS011;16708;50.426;7.664;2024-01-27T22:00:58;21.20;;;7.20;;
29814;SDS011;16708;50.426;7.664;2024-01-27T22:05:52;23.10;;;6.80;;
29814;SDS011;16708;50.426;7.664;2024-01-27T22:15:40;21.00;;;6.10;;
29814;SDS011;16708;50.426;7.664;2024-01-27T22:20:34;19.00;;;6.50;;
29814;SDS011;16708;50.426;7.664;2024-01-27T22:25:30;19.60;;;5.90;;
29814;SDS011;16708;50.426;7.664;2024-01-27T22:30:23;20.90;;;5.60;;
29814;SDS011;16708;50.426;7.664;2024-01-27T22:35:17;17.90;;;5.40;;
29814;SDS011;16708;50.426;7.664;2024-01-27T22:40:10;16.50;;;5.60;;
29814;SDS011;16708;50.426;7.664;2024-01-27T22:45:04;15.80;;;5.20;;
29814;SDS011;16708;50.426;7.664;2024-01-27T22:49:58;17.10;;;4.70;;
29814;SDS011;16708;50.426;7.664;2024-01-27T22:54:52;19.10;;;4.40;;
29814;SDS011;16708;50.426;7.664;2024-01-27T22:59:46;10.90;;;3.60;;
29814;SDS011;16708;50.426;7.664;2024-01-27T23:04:40;13.50;;;4.00;;
29814;SDS011;16708;50.426;7.664;2024-01-27T23:09:34;16.60;;;4.20;;
29814;SDS011;16708;50.426;7.664;2024-01-27T23:14:29;13.80;;;4.10;;
29814;SDS011;16708;50.426;7.664;2024-01-27T23:19:23;16.10;;;4.70;;
29814;SDS011;16708;50.426;7.664;2024-01-27T23:24:17;16.40;;;4.30;;
29814;SDS011;16708;50.426;7.664;2024-01-27T23:29:10;18.70;;;5.30;;
29814;SDS011;16708;50.426;7.664;2024-01-27T23:34:04;24.30;;;5.30;;
29814;SDS011;16708;50.426;7.664;2024-01-27T23:38:58;15.60;;;4.90;;
29814;SDS011;16708;50.426;7.664;2024-01-27T23:43:52;28.70;;;5.70;;
29814;SDS011;16708;50.426;7.664;2024-01-27T23:48:46;20.90;;;6.60;;
29814;SDS011;16708;50.426;7.664;2024-01-27T23:53:39;27.70;;;9.30;;
29814;SDS011;16708;50.426;7.664;2024-01-27T23:58:32;17.90;;;5.40;;
